LOLU weather

Gmunden-Laakirchen Airport
Gmunden, Upper Austria, Austria

Public forecast

Using degrees Celsius for public forecast. Weather courtesy of forecast.io.

Closest aviation weather report (METAR) to Gmunden-Laakirchen Airport

Closest report is Linz Hörsching Airport, 21.2 nm (39.3 km) NE. Retrieved 2019/10/22 14:20 UTC (32 minutes ago):

LOWL 221420Z VRB02KT 5000 BR FEW003 BKN005 13/12 Q1022 TEMPO 4000 BKN006

Closest aviation forecast (TAF) to Gmunden-Laakirchen Airport

Closest forecast is Linz Hörsching Airport, 21.2 nm (39.3 km) NE. Retrieved 2019/10/22 12:21 UTC (3 hours ago):

TAF LOWL 221115Z 2212/2312 30004KT 4000 BR BKN005 TX15/2214Z TN11/2304Z TEMPO 2212/2218 8000 SCT005 BKN010 BECMG 2218/2220 09003KT 2000 BR BECMG 2220/2222 0800 FG VV003 TEMPO 2222/2306 0100 VV001 BECMG 2310/2312 10010KT 8000 NSW SCT010